createdAt,value
2022-09-28T00:00:33.305Z,41.83
2022-09-28T00:02:57.615Z,41.97
2022-09-28T00:04:59.412Z,43.28
2022-09-28T00:07:01.534Z,43.17
2022-09-28T00:09:04.054Z,46.38
2022-09-28T00:11:07.151Z,46.25
2022-09-28T00:13:08.960Z,46.25
2022-09-28T00:15:10.770Z,47.57
2022-09-28T00:17:12.449Z,46.75
2022-09-28T00:19:14.375Z,44.22
2022-09-28T00:21:18.201Z,39.20
2022-09-28T00:23:19.724Z,34.72
2022-09-28T00:25:22.043Z,34.20
2022-09-28T00:27:23.837Z,32.00
2022-09-28T00:29:27.034Z,30.13
2022-09-28T00:31:31.805Z,28.00
2022-09-28T00:33:33.615Z,26.48
2022-09-28T00:35:35.144Z,27.92
2022-09-28T00:37:36.672Z,27.95
2022-09-28T00:39:41.218Z,25.77
2022-09-28T00:41:43.115Z,20.95
2022-09-28T00:43:44.674Z,18.38
2022-09-28T00:45:52.470Z,14.80
2022-09-28T00:47:58.631Z,11.23
2022-09-28T00:50:06.862Z,10.07
2022-09-28T00:52:10.497Z,9.90
2022-09-28T00:54:12.970Z,10.25
2022-09-28T00:56:17.394Z,9.32
2022-09-28T00:58:25.026Z,8.50
2022-09-28T01:00:26.727Z,8.15
2022-09-28T01:02:28.305Z,7.68
2022-09-28T01:04:31.056Z,7.43
2022-09-28T01:06:35.755Z,8.10
2022-09-28T01:08:38.843Z,7.32
2022-09-28T01:10:40.974Z,6.60
2022-09-28T01:12:42.695Z,7.30
2022-09-28T01:14:44.748Z,7.90
2022-09-28T01:16:58.801Z,7.60
2022-09-28T01:19:00.343Z,7.97
2022-09-28T01:21:21.263Z,7.57
2022-09-28T01:23:23.007Z,7.07
2022-09-28T01:25:31.420Z,7.00
2022-09-28T01:27:44.799Z,7.03
2022-09-28T01:29:51.425Z,7.13
2022-09-28T01:31:56.658Z,7.43
2022-09-28T01:34:04.743Z,6.85
2022-09-28T01:36:09.725Z,6.40
2022-09-28T01:38:29.560Z,6.85
2022-09-28T01:40:32.313Z,5.85
2022-09-28T01:44:39.904Z,4.65
2022-09-28T01:46:44.673Z,5.82
2022-09-28T01:48:46.463Z,5.55
2022-09-28T01:50:50.919Z,5.35
2022-09-28T01:53:04.993Z,5.07
2022-09-28T01:55:11.746Z,4.95
2022-09-28T01:57:20.276Z,5.63
2022-09-28T01:59:27.021Z,6.28
2022-09-28T02:01:31.889Z,6.20
2022-09-28T02:03:36.772Z,5.32
2022-09-28T02:05:46.412Z,5.57
2022-09-28T02:07:56.166Z,5.60
2022-09-28T02:10:00.684Z,6.35
2022-09-28T02:12:07.692Z,6.07
2022-09-28T02:14:10.875Z,6.38
2022-09-28T02:18:14.070Z,5.68
2022-09-28T02:20:16.211Z,6.45
2022-09-28T02:22:25.549Z,6.25
2022-09-28T02:24:31.983Z,5.35
2022-09-28T02:26:39.305Z,6.05
2022-09-28T02:28:40.936Z,6.35
2022-09-28T02:30:43.942Z,6.30
2022-09-28T02:32:48.038Z,6.20
2022-09-28T02:34:49.579Z,7.15
2022-09-28T02:36:51.232Z,6.55
2022-09-28T02:38:53.472Z,6.65
2022-09-28T02:41:04.657Z,6.40
2022-09-28T02:43:13.590Z,6.70
2022-09-28T02:45:21.804Z,6.35
2022-09-28T02:47:23.286Z,5.43
2022-09-28T02:49:27.658Z,6.38
2022-09-28T02:51:32.492Z,6.18
2022-09-28T02:53:37.350Z,5.68
2022-09-28T02:55:41.630Z,5.70
2022-09-28T02:57:48.415Z,5.63
2022-09-28T02:59:57.922Z,5.90
2022-09-28T03:02:18.666Z,6.10
2022-09-28T03:04:20.438Z,6.07
2022-09-28T03:06:25.524Z,7.05
2022-09-28T03:08:33.849Z,8.18
2022-09-28T03:10:35.647Z,7.88
2022-09-28T03:12:37.946Z,8.60
2022-09-28T03:14:39.593Z,9.40
2022-09-28T03:16:45.054Z,8.55
2022-09-28T03:18:47.003Z,9.75
2022-09-28T03:20:49.455Z,8.75
2022-09-28T03:23:12.403Z,9.30
2022-09-28T03:25:13.016Z,10.48
2022-09-28T03:27:14.528Z,10.38
2022-09-28T03:29:16.354Z,11.57
2022-09-28T03:31:18.095Z,12.50
2022-09-28T03:33:20.034Z,12.98
2022-09-28T03:35:21.779Z,13.90
2022-09-28T03:37:23.352Z,14.00
2022-09-28T03:39:25.181Z,14.10
2022-09-28T03:41:29.972Z,14.67
2022-09-28T03:43:31.583Z,15.52
2022-09-28T03:45:33.090Z,15.30
2022-09-28T03:47:34.836Z,16.17
2022-09-28T03:49:36.786Z,15.60
2022-09-28T03:51:38.425Z,16.58
2022-09-28T03:53:40.623Z,17.23
2022-09-28T03:55:42.226Z,17.77
2022-09-28T03:57:43.778Z,18.33
2022-09-28T03:59:45.511Z,18.23
2022-09-28T04:01:50.293Z,18.35
2022-09-28T04:03:57.571Z,20.08
2022-09-28T04:05:59.336Z,20.65
2022-09-28T04:08:00.955Z,22.23
2022-09-28T04:10:02.560Z,21.17
2022-09-28T04:12:04.742Z,21.40
2022-09-28T04:14:06.442Z,21.98
2022-09-28T04:16:08.179Z,22.80
2022-09-28T04:18:11.141Z,22.00
2022-09-28T04:20:12.703Z,22.30
2022-09-28T04:22:14.278Z,24.85
2022-09-28T04:24:16.070Z,24.88
2022-09-28T04:26:19.026Z,26.02
2022-09-28T04:28:39.339Z,26.58
2022-09-28T04:30:41.120Z,25.90
2022-09-28T04:32:42.783Z,29.10
2022-09-28T04:34:44.642Z,27.15
2022-09-28T04:36:47.083Z,27.23
2022-09-28T04:38:53.297Z,28.17
2022-09-28T04:40:55.295Z,28.02
2022-09-28T04:42:57.330Z,29.27
2022-09-28T04:45:01.543Z,27.45
2022-09-28T04:47:05.297Z,27.55
2022-09-28T04:49:07.300Z,25.70
2022-09-28T04:51:09.127Z,25.80
2022-09-28T04:53:10.763Z,26.88
2022-09-28T04:55:15.684Z,27.10
2022-09-28T04:57:17.435Z,26.42
2022-09-28T04:59:19.063Z,26.70
2022-09-28T05:01:23.726Z,27.17
2022-09-28T05:03:25.943Z,25.48
2022-09-28T05:05:27.850Z,25.37
2022-09-28T05:07:31.185Z,25.65
2022-09-28T05:09:36.321Z,24.95
2022-09-28T05:11:40.103Z,26.67
2022-09-28T05:13:43.668Z,25.13
2022-09-28T05:15:45.409Z,25.10
2022-09-28T05:17:47.079Z,24.25
2022-09-28T05:19:48.843Z,25.90
2022-09-28T05:21:50.494Z,24.92
2022-09-28T05:23:52.139Z,25.75
2022-09-28T05:25:54.088Z,26.15
2022-09-28T05:27:56.552Z,25.77
2022-09-28T05:29:58.114Z,24.27
2022-09-28T05:32:01.637Z,24.15
2022-09-28T05:34:03.530Z,25.48
2022-09-28T05:36:05.200Z,24.30
2022-09-28T05:38:07.051Z,25.00
2022-09-28T05:40:09.004Z,23.85
2022-09-28T05:42:10.618Z,25.30
2022-09-28T05:44:12.603Z,24.45
2022-09-28T05:46:14.574Z,26.17
2022-09-28T05:48:16.313Z,27.23
2022-09-28T05:50:18.208Z,25.52
2022-09-28T05:52:20.120Z,23.80
2022-09-28T05:54:21.737Z,24.88
2022-09-28T05:56:23.549Z,24.33
2022-09-28T05:58:25.156Z,25.20
2022-09-28T06:00:27.271Z,24.50
2022-09-28T06:02:29.205Z,25.60
2022-09-28T06:04:31.008Z,25.13
2022-09-28T06:06:34.519Z,23.38
2022-09-28T06:08:36.272Z,23.38
2022-09-28T06:10:38.179Z,22.95
2022-09-28T06:12:39.801Z,28.50
2022-09-28T06:14:41.647Z,23.83
2022-09-28T06:16:44.079Z,23.75
2022-09-28T06:18:45.679Z,21.52
2022-09-28T06:20:47.516Z,21.70
2022-09-28T06:22:52.929Z,21.77
2022-09-28T06:24:54.438Z,21.17
2022-09-28T06:26:56.314Z,22.10
2022-09-28T06:28:59.696Z,20.25
2022-09-28T06:31:01.509Z,21.67
2022-09-28T06:33:03.495Z,22.03
2022-09-28T06:35:05.717Z,22.88
2022-09-28T06:37:07.486Z,22.27
2022-09-28T06:39:09.214Z,21.80
2022-09-28T06:41:11.119Z,23.58
2022-09-28T06:43:15.307Z,22.58
2022-09-28T06:45:21.788Z,22.73
2022-09-28T06:47:23.515Z,22.73
2022-09-28T06:49:27.719Z,20.92
2022-09-28T06:51:29.505Z,22.17
2022-09-28T06:53:31.399Z,21.83
2022-09-28T06:55:33.043Z,23.20
2022-09-28T06:57:34.829Z,21.33
2022-09-28T06:59:36.719Z,20.73
2022-09-28T07:01:38.302Z,22.00
2022-09-28T07:03:40.598Z,21.52
2022-09-28T07:05:46.187Z,19.57
2022-09-28T07:07:47.714Z,20.02
2022-09-28T07:09:55.239Z,19.52
2022-09-28T07:11:58.409Z,17.98
2022-09-28T07:16:01.889Z,17.45
2022-09-28T07:18:05.294Z,18.10
2022-09-28T07:20:16.976Z,17.90
2022-09-28T07:22:32.823Z,17.88
2022-09-28T07:24:40.825Z,17.40
2022-09-28T07:26:45.360Z,17.10
2022-09-28T07:28:47.126Z,17.75
2022-09-28T07:30:49.981Z,17.23
2022-09-28T07:32:51.683Z,17.58
2022-09-28T07:34:58.722Z,16.77
2022-09-28T07:37:00.740Z,16.70
2022-09-28T07:39:02.582Z,17.05
2022-09-28T07:41:14.308Z,16.92
2022-09-28T07:43:20.555Z,16.45
2022-09-28T07:45:24.493Z,15.90
2022-09-28T07:47:30.883Z,16.00
2022-09-28T07:49:36.050Z,16.60
2022-09-28T07:51:37.557Z,15.60
2022-09-28T07:53:39.430Z,15.88
2022-09-28T07:55:41.022Z,15.40
2022-09-28T07:57:43.243Z,14.63
2022-09-28T07:59:45.217Z,16.67
2022-09-28T08:01:47.397Z,12.40
2022-09-28T08:03:48.933Z,12.90
2022-09-28T08:05:50.762Z,11.55
2022-09-28T08:07:53.019Z,11.93
2022-09-28T08:09:54.613Z,11.13
2022-09-28T08:11:57.792Z,10.57
2022-09-28T08:16:02.613Z,10.70
2022-09-28T08:18:05.034Z,11.38
2022-09-28T08:20:25.752Z,12.20
2022-09-28T08:22:27.869Z,11.50
2022-09-28T08:24:31.005Z,12.20
2022-09-28T08:28:35.331Z,14.02
2022-09-28T08:30:37.069Z,12.90
2022-09-28T08:32:38.717Z,12.30
2022-09-28T08:34:40.923Z,12.25
2022-09-28T08:36:43.306Z,11.77
2022-09-28T08:38:44.822Z,11.73
2022-09-28T08:40:49.894Z,11.80
2022-09-28T08:42:57.733Z,11.40
2022-09-28T08:45:04.989Z,11.13
2022-09-28T08:47:30.083Z,10.85
2022-09-28T08:49:32.784Z,10.65
2022-09-28T08:51:38.211Z,10.95
2022-09-28T08:53:45.942Z,10.38
2022-09-28T08:55:49.021Z,10.82
2022-09-28T08:59:53.616Z,11.00
2022-09-28T09:01:58.034Z,12.38
2022-09-28T09:03:59.701Z,11.43
2022-09-28T09:06:18.157Z,10.95
2022-09-28T09:08:50.052Z,10.57
2022-09-28T09:10:51.654Z,11.88
2022-09-28T09:13:00.694Z,11.48
2022-09-28T09:15:25.626Z,11.32
2022-09-28T09:17:45.494Z,12.43
2022-09-28T09:19:55.666Z,11.80
2022-09-28T09:22:01.475Z,11.43
2022-09-28T09:24:15.631Z,10.95
2022-09-28T09:26:25.265Z,11.00
2022-09-28T09:28:51.575Z,10.35
2022-09-28T09:30:56.033Z,10.88
2022-09-28T09:33:23.113Z,11.25
2022-09-28T09:35:30.983Z,10.32
2022-09-28T09:37:54.185Z,9.23
2022-09-28T09:40:18.238Z,10.25
2022-09-28T09:42:20.062Z,9.02
2022-09-28T09:44:40.245Z,8.85
2022-09-28T09:46:41.996Z,8.18
2022-09-28T09:48:46.728Z,8.10
2022-09-28T09:50:53.936Z,8.00
2022-09-28T09:53:02.278Z,7.38
2022-09-28T09:55:14.004Z,8.07
2022-09-28T09:57:18.938Z,7.32
2022-09-28T09:59:24.304Z,6.93
2022-09-28T10:01:39.750Z,5.90
2022-09-28T10:03:42.856Z,4.95
2022-09-28T10:05:46.944Z,5.70
2022-09-28T10:08:00.113Z,5.53
2022-09-28T10:10:02.282Z,5.72
2022-09-28T10:12:05.425Z,5.75
2022-09-28T10:14:08.544Z,5.57
2022-09-28T10:18:12.826Z,5.57
2022-09-28T10:22:17.909Z,4.63
2022-09-28T10:24:31.660Z,4.93
2022-09-28T10:26:35.823Z,4.78
2022-09-28T10:28:40.674Z,4.80
2022-09-28T10:30:44.369Z,4.88
2022-09-28T10:32:47.643Z,4.38
2022-09-28T10:34:51.123Z,4.63
2022-09-28T10:36:55.932Z,4.43
2022-09-28T10:38:57.991Z,4.90
2022-09-28T10:41:13.411Z,4.50
2022-09-28T10:43:27.146Z,4.40
2022-09-28T10:45:32.315Z,5.10
2022-09-28T10:47:35.543Z,4.72
2022-09-28T10:49:47.050Z,4.80
2022-09-28T10:51:51.768Z,5.13
2022-09-28T10:54:04.307Z,4.65
2022-09-28T10:56:19.902Z,4.30
2022-09-28T10:58:26.869Z,5.22
2022-09-28T11:00:32.831Z,7.07
2022-09-28T11:02:38.522Z,5.22
2022-09-28T11:04:42.686Z,5.22
2022-09-28T11:06:44.577Z,4.72
2022-09-28T11:08:49.318Z,4.70
2022-09-28T11:11:01.575Z,4.78
2022-09-28T11:13:03.205Z,4.63
2022-09-28T11:15:06.887Z,4.95
2022-09-28T11:17:18.453Z,4.65
2022-09-28T11:19:20.622Z,5.20
2022-09-28T11:21:23.847Z,4.75
2022-09-28T11:23:30.123Z,4.60
2022-09-28T11:25:31.691Z,5.05
2022-09-28T11:27:33.456Z,4.95
2022-09-28T11:29:41.698Z,4.72
2022-09-28T11:31:44.018Z,4.57
2022-09-28T11:33:47.051Z,4.20
2022-09-28T11:35:52.250Z,4.20
2022-09-28T11:37:56.928Z,4.35
2022-09-28T11:40:06.268Z,4.38
2022-09-28T11:42:14.229Z,4.47
2022-09-28T11:44:17.987Z,4.60
2022-09-28T11:46:27.122Z,4.00
2022-09-28T11:48:41.407Z,4.35
2022-09-28T11:50:43.002Z,3.85
2022-09-28T11:52:55.120Z,4.25
2022-09-28T11:55:02.317Z,13.90
2022-09-28T11:57:05.603Z,4.38
2022-09-28T11:59:19.803Z,4.25
2022-09-28T12:01:26.457Z,4.45
2022-09-28T12:03:31.172Z,4.22
2022-09-28T12:05:59.052Z,3.95
2022-09-28T12:08:09.647Z,4.57
2022-09-28T12:10:11.697Z,4.45
2022-09-28T12:12:22.506Z,4.00
2022-09-28T12:14:32.552Z,4.00
2022-09-28T12:19:10.736Z,3.22
2022-09-28T12:21:25.383Z,2.95
2022-09-28T12:23:33.685Z,3.30
2022-09-28T12:25:40.752Z,3.15
2022-09-28T12:27:56.205Z,3.00
2022-09-28T12:30:05.868Z,2.80
2022-09-28T12:32:24.047Z,3.15
2022-09-28T12:34:25.918Z,2.50
2022-09-28T12:37:05.887Z,2.50
2022-09-28T12:39:40.762Z,2.58
2022-09-28T12:41:49.811Z,2.90
2022-09-28T12:43:58.837Z,18.50
2022-09-28T12:46:19.745Z,6.40
2022-09-28T12:48:40.250Z,2.33
2022-09-28T12:50:57.591Z,2.40
2022-09-28T12:53:07.627Z,2.30
2022-09-28T12:55:15.229Z,2.58
2022-09-28T12:57:29.629Z,3.05
2022-09-28T12:59:32.210Z,3.00
2022-09-28T13:01:35.702Z,2.90
2022-09-28T13:03:57.747Z,2.85
2022-09-28T13:06:04.398Z,3.17
2022-09-28T13:08:13.275Z,2.85
2022-09-28T13:10:16.088Z,2.95
2022-09-28T13:12:17.850Z,2.67
2022-09-28T13:14:22.598Z,3.08
2022-09-28T13:16:24.440Z,3.03
2022-09-28T13:18:41.203Z,3.17
2022-09-28T13:20:46.643Z,4.15
2022-09-28T13:23:12.587Z,3.08
2022-09-28T13:25:19.069Z,3.42
2022-09-28T13:27:32.187Z,3.80
2022-09-28T13:29:34.945Z,3.88
2022-09-28T13:31:40.912Z,3.60
2022-09-28T13:33:44.364Z,3.50
2022-09-28T13:35:46.012Z,3.75
2022-09-28T13:37:47.871Z,3.92
2022-09-28T13:39:53.270Z,4.07
2022-09-28T13:41:55.942Z,3.45
2022-09-28T13:44:00.397Z,4.05
2022-09-28T13:46:25.547Z,4.45
2022-09-28T13:48:34.665Z,3.72
2022-09-28T13:50:51.374Z,3.95
2022-09-28T13:52:59.183Z,3.80
2022-09-28T13:55:23.831Z,4.07
2022-09-28T13:57:37.193Z,3.85
2022-09-28T13:59:59.250Z,3.08
2022-09-28T14:02:16.932Z,4.05
2022-09-28T14:04:20.337Z,3.97
2022-09-28T14:06:22.201Z,4.20
2022-09-28T14:08:40.156Z,3.83
2022-09-28T14:10:51.744Z,4.07
2022-09-28T14:12:54.016Z,3.92
2022-09-28T14:14:55.633Z,4.53
2022-09-28T14:17:00.595Z,4.00
2022-09-28T14:19:20.458Z,4.50
2022-09-28T14:21:22.008Z,4.75
2022-09-28T14:23:24.167Z,4.88
2022-09-28T14:25:38.728Z,4.43
2022-09-28T14:28:01.105Z,4.45
2022-09-28T14:30:11.862Z,4.63
2022-09-28T14:32:23.879Z,4.65
2022-09-28T14:34:34.142Z,4.38
2022-09-28T14:37:00.950Z,4.38
2022-09-28T14:39:21.149Z,3.38
2022-09-28T14:41:25.872Z,2.92
2022-09-28T14:43:35.771Z,2.97
2022-09-28T14:45:40.807Z,2.90
2022-09-28T14:47:43.690Z,2.88
2022-09-28T14:49:47.750Z,2.88
2022-09-28T14:51:58.477Z,3.33
2022-09-28T14:54:04.737Z,3.08
2022-09-28T14:56:07.861Z,2.85
2022-09-28T14:58:16.307Z,3.30
2022-09-28T15:00:22.256Z,3.05
2022-09-28T15:02:30.907Z,2.80
2022-09-28T15:04:35.059Z,3.42
2022-09-28T15:06:50.247Z,3.45
2022-09-28T15:08:51.851Z,3.45
2022-09-28T15:10:53.667Z,3.60
2022-09-28T15:12:57.101Z,3.00
2022-09-28T15:15:02.754Z,2.90
2022-09-28T15:17:12.280Z,3.28
2022-09-28T15:19:22.878Z,3.28
2022-09-28T15:21:31.676Z,3.10
2022-09-28T15:23:33.688Z,3.75
2022-09-28T15:25:36.239Z,3.70
2022-09-28T15:27:38.316Z,3.45
2022-09-28T15:29:41.004Z,3.50
2022-09-28T15:31:42.649Z,3.33
2022-09-28T15:34:03.022Z,3.65
2022-09-28T15:36:06.074Z,3.42
2022-09-28T15:38:11.227Z,3.40
2022-09-28T15:40:14.928Z,3.20
2022-09-28T15:42:17.144Z,3.22
2022-09-28T15:44:20.132Z,3.63
2022-09-28T15:48:31.002Z,3.35
2022-09-28T15:50:34.490Z,3.30
2022-09-28T15:52:40.694Z,3.50
2022-09-28T15:54:44.100Z,3.15
2022-09-28T15:56:59.508Z,3.55
2022-09-28T15:59:08.457Z,3.42
2022-09-28T16:01:27.637Z,3.70
2022-09-28T16:03:29.402Z,3.60
2022-09-28T16:05:35.829Z,4.78
2022-09-28T16:07:39.198Z,3.92
2022-09-28T16:09:54.838Z,3.83
2022-09-28T16:11:56.674Z,3.67
2022-09-28T16:14:06.451Z,5.50
2022-09-28T16:16:14.755Z,4.32
2022-09-28T16:18:20.424Z,3.78
2022-09-28T16:20:41.013Z,3.63
2022-09-28T16:22:42.923Z,3.83
2022-09-28T16:24:53.222Z,4.07
2022-09-28T16:27:00.975Z,3.72
2022-09-28T16:29:07.574Z,3.53
2022-09-28T16:31:11.963Z,3.80
2022-09-28T16:33:46.744Z,3.63
2022-09-28T16:35:48.309Z,4.20
2022-09-28T16:37:56.458Z,3.72
2022-09-28T16:39:58.256Z,4.00
2022-09-28T16:42:02.987Z,3.85
2022-09-28T16:44:05.025Z,3.90
2022-09-28T16:46:13.840Z,3.78
2022-09-28T16:48:20.395Z,4.35
2022-09-28T16:50:22.284Z,3.85
2022-09-28T16:52:42.798Z,4.83
2022-09-28T16:55:07.392Z,5.22
2022-09-28T16:57:19.290Z,4.70
2022-09-28T16:59:22.210Z,5.00
2022-09-28T17:01:24.359Z,5.50
2022-09-28T17:03:26.833Z,5.60
2022-09-28T17:05:28.676Z,5.60
2022-09-28T17:07:30.300Z,5.22
2022-09-28T17:09:31.860Z,5.50
2022-09-28T17:11:33.743Z,5.47
2022-09-28T17:13:35.927Z,5.85
2022-09-28T17:15:39.002Z,5.90
2022-09-28T17:17:41.155Z,5.47
2022-09-28T17:19:43.143Z,6.40
2022-09-28T17:21:45.013Z,6.80
2022-09-28T17:23:48.221Z,6.27
2022-09-28T17:25:50.014Z,6.15
2022-09-28T17:27:53.898Z,6.03
2022-09-28T17:29:55.783Z,5.55
2022-09-28T17:31:57.281Z,6.50
2022-09-28T17:33:58.836Z,6.20
2022-09-28T17:36:01.698Z,5.88
2022-09-28T17:38:03.370Z,6.47
2022-09-28T17:40:14.284Z,6.10
2022-09-28T17:42:17.221Z,6.35
2022-09-28T17:44:20.463Z,6.75
2022-09-28T17:46:29.884Z,10.70
2022-09-28T17:48:34.351Z,6.60
2022-09-28T17:50:36.013Z,6.40
2022-09-28T17:52:38.003Z,6.07
2022-09-28T17:54:39.779Z,6.80
2022-09-28T17:56:42.592Z,6.90
2022-09-28T17:58:44.112Z,6.53
2022-09-28T18:00:46.819Z,6.28
2022-09-28T18:02:48.725Z,7.22
2022-09-28T18:04:52.570Z,8.55
2022-09-28T18:06:54.624Z,7.55
2022-09-28T18:08:56.207Z,7.55
2022-09-28T18:10:57.892Z,8.57
2022-09-28T18:12:59.823Z,7.90
2022-09-28T18:15:01.375Z,8.48
2022-09-28T18:17:03.268Z,14.35
2022-09-28T18:19:05.270Z,34.07
2022-09-28T18:21:07.524Z,12.32
2022-09-28T18:23:09.067Z,12.75
2022-09-28T18:25:11.216Z,12.80
2022-09-28T18:27:12.786Z,12.50
2022-09-28T18:29:16.548Z,11.75
2022-09-28T18:31:19.182Z,12.25
2022-09-28T18:33:20.987Z,12.20
2022-09-28T18:35:23.403Z,10.95
2022-09-28T18:37:25.746Z,10.60
2022-09-28T18:39:27.315Z,10.85
2022-09-28T18:41:29.296Z,10.77
2022-09-28T18:43:35.580Z,10.68
2022-09-28T18:45:37.900Z,9.60
2022-09-28T18:47:39.924Z,8.38
2022-09-28T18:49:46.457Z,8.90
2022-09-28T18:51:48.755Z,8.82
2022-09-28T18:53:50.318Z,9.30
2022-09-28T18:55:52.132Z,10.45
2022-09-28T18:57:54.539Z,8.88
2022-09-28T18:59:56.074Z,8.18
2022-09-28T19:01:58.013Z,7.47
2022-09-28T19:04:00.568Z,6.50
2022-09-28T19:06:02.470Z,6.78
2022-09-28T19:08:04.283Z,5.17
2022-09-28T19:10:06.222Z,6.47
2022-09-28T19:12:07.799Z,6.43
2022-09-28T19:14:11.061Z,6.38
2022-09-28T19:18:20.477Z,5.22
2022-09-28T19:20:22.583Z,6.18
2022-09-28T19:22:24.262Z,9.52
2022-09-28T19:24:25.850Z,17.63
2022-09-28T19:26:28.180Z,22.60
2022-09-28T19:28:30.311Z,19.17
2022-09-28T19:30:31.841Z,11.47
2022-09-28T19:32:33.626Z,8.55
2022-09-28T19:34:35.804Z,4.23
2022-09-28T19:36:38.095Z,3.40
2022-09-28T19:38:40.739Z,3.72
2022-09-28T19:40:42.366Z,3.63
2022-09-28T19:42:43.967Z,3.53
2022-09-28T19:44:46.643Z,3.50
2022-09-28T19:46:48.172Z,3.58
2022-09-28T19:48:49.857Z,3.42
2022-09-28T19:51:02.011Z,4.45
2022-09-28T19:53:06.613Z,3.50
2022-09-28T19:55:08.395Z,3.90
2022-09-28T19:57:10.597Z,4.82
2022-09-28T19:59:12.619Z,5.00
2022-09-28T20:01:14.227Z,3.45
2022-09-28T20:03:16.039Z,3.63
2022-09-28T20:05:17.520Z,4.72
2022-09-28T20:07:19.047Z,4.30
2022-09-28T20:09:21.093Z,3.42
2022-09-28T20:11:23.464Z,6.78
2022-09-28T20:13:34.929Z,3.35
2022-09-28T20:15:36.920Z,3.67
2022-09-28T20:17:39.025Z,3.47
2022-09-28T20:19:40.803Z,3.22
2022-09-28T20:21:42.568Z,3.30
2022-09-28T20:23:44.821Z,4.15
2022-09-28T20:25:46.405Z,4.68
2022-09-28T20:27:48.125Z,2.90
2022-09-28T20:29:49.818Z,3.20
2022-09-28T20:31:51.848Z,2.58
2022-09-28T20:33:53.673Z,2.80
2022-09-28T20:35:55.942Z,2.60
2022-09-28T20:37:59.473Z,2.88
2022-09-28T20:40:01.785Z,3.17
2022-09-28T20:42:03.340Z,3.93
2022-09-28T20:44:06.578Z,4.93
2022-09-28T20:46:10.407Z,5.10
2022-09-28T20:48:12.003Z,4.93
2022-09-28T20:50:13.578Z,5.38
2022-09-28T20:52:15.374Z,5.93
2022-09-28T20:54:16.979Z,5.43
2022-09-28T20:56:21.507Z,6.18
2022-09-28T20:58:23.217Z,6.40
2022-09-28T21:00:24.891Z,6.50
2022-09-28T21:02:26.514Z,6.53
2022-09-28T21:04:28.364Z,7.28
2022-09-28T21:06:31.340Z,7.57
2022-09-28T21:10:34.707Z,7.50
2022-09-28T21:12:36.887Z,8.07
2022-09-28T21:14:38.568Z,8.50
2022-09-28T21:16:40.342Z,8.25
2022-09-28T21:18:41.940Z,8.48
2022-09-28T21:20:44.319Z,8.38
2022-09-28T21:22:46.039Z,8.88
2022-09-28T21:24:47.553Z,7.95
2022-09-28T21:26:49.120Z,7.88
2022-09-28T21:28:54.755Z,9.48
2022-09-28T21:30:56.419Z,9.15
2022-09-28T21:32:58.147Z,9.82
2022-09-28T21:34:59.894Z,9.48
2022-09-28T21:37:01.538Z,9.80
2022-09-28T21:39:06.000Z,9.50
2022-09-28T21:41:11.566Z,9.57
2022-09-28T21:43:13.086Z,9.82
2022-09-28T21:45:14.721Z,9.80
2022-09-28T21:47:16.781Z,9.55
2022-09-28T21:49:19.032Z,10.00
2022-09-28T21:51:21.005Z,10.00
2022-09-28T21:53:23.859Z,9.65
2022-09-28T21:55:25.398Z,9.25
2022-09-28T21:57:27.003Z,9.43
2022-09-28T21:59:29.174Z,9.00
2022-09-28T22:01:31.823Z,9.32
2022-09-28T22:03:34.888Z,8.13
2022-09-28T22:05:37.059Z,8.63
2022-09-28T22:07:39.428Z,8.75
2022-09-28T22:09:40.947Z,8.15
2022-09-28T22:11:42.813Z,9.27
2022-09-28T22:13:48.415Z,11.38
2022-09-28T22:15:53.150Z,10.63
2022-09-28T22:17:54.899Z,12.57
2022-09-28T22:19:56.629Z,12.35
2022-09-28T22:21:58.235Z,13.55
2022-09-28T22:24:03.539Z,14.52
2022-09-28T22:26:09.825Z,14.95
2022-09-28T22:28:11.616Z,15.40
2022-09-28T22:30:13.330Z,17.77
2022-09-28T22:32:14.837Z,19.33
2022-09-28T22:34:16.595Z,21.13
2022-09-28T22:36:19.129Z,21.05
2022-09-28T22:38:21.774Z,23.42
2022-09-28T22:40:25.920Z,23.90
2022-09-28T22:42:28.099Z,24.17
2022-09-28T22:44:29.670Z,24.42
2022-09-28T22:46:32.461Z,25.02
2022-09-28T22:48:34.900Z,25.20
2022-09-28T22:50:36.596Z,25.73
2022-09-28T22:52:38.325Z,26.77
2022-09-28T22:54:40.494Z,30.08
2022-09-28T22:56:43.484Z,28.15
2022-09-28T23:00:46.937Z,26.45
2022-09-28T23:02:48.594Z,29.58
2022-09-28T23:04:50.159Z,29.25
2022-09-28T23:06:51.879Z,28.92
2022-09-28T23:08:53.828Z,29.05
2022-09-28T23:10:55.351Z,30.38
2022-09-28T23:12:57.103Z,27.27
2022-09-28T23:14:58.724Z,29.83
2022-09-28T23:17:00.527Z,29.15
2022-09-28T23:19:02.283Z,33.78
2022-09-28T23:21:05.083Z,31.85
2022-09-28T23:23:06.610Z,32.05
2022-09-28T23:25:08.476Z,34.30
2022-09-28T23:27:10.115Z,33.58
2022-09-28T23:29:11.648Z,32.22
2022-09-28T23:31:21.444Z,33.83
2022-09-28T23:33:23.282Z,34.92
2022-09-28T23:35:24.891Z,34.80
2022-09-28T23:37:26.618Z,36.80
2022-09-28T23:39:28.156Z,34.55
2022-09-28T23:41:29.985Z,32.67
2022-09-28T23:43:31.722Z,33.22
2022-09-28T23:45:33.300Z,31.95
2022-09-28T23:47:37.241Z,31.73
2022-09-28T23:49:39.141Z,29.83
2022-09-28T23:51:40.654Z,29.20
2022-09-28T23:53:43.211Z,28.30
2022-09-28T23:55:44.933Z,27.92
2022-09-28T23:57:46.514Z,26.40
2022-09-28T23:59:48.006Z,27.35
